Kenosha, Wisconsin
Current Conditions -  °F | °C
As of 6:53 AM on Thursday 27 Nov 2014 (Local Time) from KENW Reporting Station
Overcast Overcast  
Wind Chill: 12°   Ceiling: 5000
Heat Index: 23°   Visibility: 9mi
Dew Point: 18°   Wind: 10mph
Humidity: 81%   Direction: 310°NW
Pressure: 30.26"   Gusts: NA
Location:  42.59°N, 87.82°W
Report Text: KENW 271253Z 31009KT 9SM BKN050 OVC060 M05/M08 A3026 RMK AO2 SLP258 T10501078 $
Loading
Personal Weather Stations






























Interactive Weather Map New forecast layout! Learn more

10-Day Weather Forecast

Advertisements
Track Severe Weather on mobile